createdAt,value
2018-05-16T00:01:54.966Z,16.10
2018-05-16T00:04:22.480Z,16.00
2018-05-16T00:06:49.982Z,16.00
2018-05-16T00:09:17.501Z,15.90
2018-05-16T00:11:45.017Z,15.90
2018-05-16T00:14:13.276Z,15.80
2018-05-16T00:16:40.802Z,15.80
2018-05-16T00:19:09.792Z,15.80
2018-05-16T00:21:37.316Z,15.80
2018-05-16T00:26:39.481Z,15.70
2018-05-16T00:29:07.746Z,15.80
2018-05-16T00:31:35.525Z,15.70
2018-05-16T00:34:03.808Z,15.80
2018-05-16T00:36:32.077Z,15.80
2018-05-16T00:39:00.373Z,15.80
2018-05-16T00:41:27.876Z,15.80
2018-05-16T00:43:55.384Z,15.70
2018-05-16T00:46:22.979Z,15.60
2018-05-16T00:48:50.502Z,15.60
2018-05-16T00:51:30.654Z,15.60
2018-05-16T00:53:58.934Z,15.50
2018-05-16T00:56:27.191Z,15.60
2018-05-16T00:58:54.704Z,15.70
2018-05-16T01:01:22.200Z,15.60
2018-05-16T01:03:49.721Z,15.60
2018-05-16T01:06:17.227Z,15.60
2018-05-16T01:08:44.725Z,15.60
2018-05-16T01:11:12.301Z,15.50
2018-05-16T01:13:39.930Z,15.40
2018-05-16T01:16:07.485Z,15.40
2018-05-16T01:18:35.766Z,15.40
2018-05-16T01:21:03.273Z,15.40
2018-05-16T01:23:30.817Z,15.40
2018-05-16T01:25:58.929Z,15.40
2018-05-16T01:28:26.439Z,15.40
2018-05-16T01:30:53.962Z,15.50
2018-05-16T01:33:22.301Z,15.50
2018-05-16T01:35:50.196Z,15.50
2018-05-16T01:38:17.708Z,15.50
2018-05-16T01:40:45.216Z,15.50
2018-05-16T01:43:12.760Z,15.50
2018-05-16T01:45:40.285Z,15.50
2018-05-16T01:48:07.802Z,15.40
2018-05-16T01:50:36.068Z,15.40
2018-05-16T01:53:03.577Z,15.40
2018-05-16T01:55:31.076Z,15.40
2018-05-16T01:57:58.599Z,15.30
2018-05-16T02:00:26.144Z,15.30
2018-05-16T02:02:53.648Z,15.20
2018-05-16T02:05:21.177Z,15.40
2018-05-16T02:07:48.680Z,15.30
2018-05-16T02:10:16.202Z,15.30
2018-05-16T02:12:43.701Z,15.30
2018-05-16T02:15:11.214Z,15.30
2018-05-16T02:17:38.805Z,15.40
2018-05-16T02:20:06.308Z,15.40
2018-05-16T02:22:33.813Z,15.40
2018-05-16T02:25:01.329Z,15.20
2018-05-16T02:27:28.833Z,15.00
2018-05-16T02:29:56.343Z,15.10
2018-05-16T02:32:23.858Z,15.10
2018-05-16T02:34:51.385Z,15.10
2018-05-16T02:37:18.905Z,15.30
2018-05-16T02:39:47.182Z,15.20
2018-05-16T02:42:15.469Z,15.10
2018-05-16T02:44:42.971Z,15.10
2018-05-16T02:47:10.485Z,15.20
2018-05-16T02:49:38.784Z,15.20
2018-05-16T02:52:06.376Z,15.10
2018-05-16T02:54:34.721Z,15.10
2018-05-16T02:57:02.146Z,15.10
2018-05-16T02:59:30.422Z,15.00
2018-05-16T03:01:58.693Z,15.00
2018-05-16T03:04:26.211Z,15.00
2018-05-16T03:06:55.104Z,14.80
2018-05-16T03:09:22.613Z,14.80
2018-05-16T03:11:50.138Z,14.80
2018-05-16T03:14:17.730Z,14.80
2018-05-16T03:16:45.998Z,14.90
2018-05-16T03:19:13.537Z,14.90
2018-05-16T03:21:41.084Z,14.80
2018-05-16T03:24:09.206Z,14.80
2018-05-16T03:26:37.468Z,14.80
2018-05-16T03:29:04.970Z,14.70
2018-05-16T03:31:32.480Z,14.80
2018-05-16T03:34:00.041Z,14.80
2018-05-16T03:36:27.556Z,14.70
2018-05-16T03:38:55.062Z,14.80
2018-05-16T03:41:22.581Z,14.80
2018-05-16T03:43:50.087Z,14.80
2018-05-16T03:46:18.376Z,14.90
2018-05-16T03:48:46.641Z,14.80
2018-05-16T03:51:14.940Z,14.90
2018-05-16T03:53:42.465Z,14.90
2018-05-16T03:56:09.956Z,14.90
2018-05-16T03:58:49.953Z,14.80
2018-05-16T04:01:29.459Z,14.80
2018-05-16T04:04:08.708Z,14.90
2018-05-16T04:06:36.236Z,14.90
2018-05-16T04:09:03.826Z,14.80
2018-05-16T04:11:31.401Z,14.80
2018-05-16T04:13:58.969Z,14.90
2018-05-16T04:16:26.490Z,14.90
2018-05-16T04:18:54.120Z,14.80
2018-05-16T04:21:22.413Z,14.80
2018-05-16T04:23:50.688Z,14.90
2018-05-16T04:26:18.953Z,14.90
2018-05-16T04:28:47.484Z,14.90
2018-05-16T04:31:14.987Z,14.90
2018-05-16T04:33:42.501Z,15.00
2018-05-16T04:36:10.478Z,14.90
2018-05-16T04:38:37.981Z,15.00
2018-05-16T04:41:06.261Z,15.10
2018-05-16T04:43:34.536Z,15.10
2018-05-16T04:46:02.816Z,15.10
2018-05-16T04:48:31.080Z,15.20
2018-05-16T04:50:58.693Z,15.20
2018-05-16T04:53:26.258Z,15.30
2018-05-16T04:55:53.859Z,15.40
2018-05-16T04:58:21.446Z,15.40
2018-05-16T05:00:49.747Z,15.50
2018-05-16T05:03:17.240Z,15.50
2018-05-16T05:05:44.754Z,15.60
2018-05-16T05:08:12.814Z,15.60
2018-05-16T05:10:41.086Z,15.70
2018-05-16T05:13:09.371Z,15.70
2018-05-16T05:15:37.644Z,15.60
2018-05-16T05:18:05.981Z,15.60
2018-05-16T05:20:33.425Z,15.60
2018-05-16T05:23:00.958Z,15.60
2018-05-16T05:25:28.544Z,15.60
2018-05-16T05:27:56.059Z,15.60
2018-05-16T05:30:24.435Z,15.80
2018-05-16T05:32:51.873Z,15.70
2018-05-16T05:35:19.389Z,15.90
2018-05-16T05:37:46.894Z,15.90
2018-05-16T05:40:15.181Z,16.10
2018-05-16T05:42:43.469Z,16.20
2018-05-16T05:45:11.737Z,16.20
2018-05-16T05:47:40.182Z,16.30
2018-05-16T05:50:07.770Z,16.20
2018-05-16T05:52:36.075Z,16.40
2018-05-16T05:55:03.590Z,16.40
2018-05-16T05:57:31.255Z,16.60
2018-05-16T05:59:58.853Z,16.70
2018-05-16T06:02:26.373Z,16.80
2018-05-16T06:04:54.490Z,17.00
2018-05-16T06:07:22.042Z,16.90
2018-05-16T06:09:49.560Z,16.90
2018-05-16T06:12:17.458Z,16.90
2018-05-16T06:14:45.726Z,16.80
2018-05-16T06:17:14.181Z,16.60
2018-05-16T06:19:41.829Z,16.60
2018-05-16T06:22:09.429Z,16.60
2018-05-16T06:24:37.028Z,16.60
2018-05-16T06:27:04.662Z,16.70
2018-05-16T06:29:32.975Z,16.70
2018-05-16T06:32:00.487Z,16.70
2018-05-16T06:34:28.001Z,16.70
2018-05-16T06:36:55.510Z,16.80
2018-05-16T06:39:23.789Z,16.70
2018-05-16T06:41:52.148Z,16.70
2018-05-16T06:44:19.677Z,16.70
2018-05-16T06:46:47.249Z,16.70
2018-05-16T06:49:14.830Z,16.70
2018-05-16T06:51:42.421Z,16.70
2018-05-16T06:54:09.997Z,16.80
2018-05-16T06:56:37.625Z,16.80
2018-05-16T06:59:05.913Z,16.50
2018-05-16T07:01:34.188Z,16.60
2018-05-16T07:04:02.538Z,16.60
2018-05-16T07:06:29.996Z,16.60
2018-05-16T07:08:58.110Z,16.50
2018-05-16T07:11:25.621Z,16.40
2018-05-16T07:13:53.125Z,16.40
2018-05-16T07:16:20.637Z,16.40
2018-05-16T07:18:48.203Z,16.40
2018-05-16T07:21:15.680Z,16.40
2018-05-16T07:23:43.181Z,16.30
2018-05-16T07:26:10.685Z,16.30
2018-05-16T07:28:38.270Z,16.20
2018-05-16T07:31:06.550Z,16.10
2018-05-16T07:33:34.957Z,16.30
2018-05-16T07:36:02.476Z,16.20
2018-05-16T07:38:29.993Z,16.30
2018-05-16T07:40:57.507Z,16.40
2018-05-16T07:43:25.813Z,16.30
2018-05-16T07:45:53.337Z,16.30
2018-05-16T07:48:21.664Z,16.30
2018-05-16T07:50:50.017Z,16.30
2018-05-16T07:53:17.521Z,16.40
2018-05-16T07:55:45.024Z,16.50
2018-05-16T07:58:12.592Z,16.60
2018-05-16T08:00:40.093Z,16.60
2018-05-16T08:03:07.683Z,16.60
2018-05-16T08:05:35.163Z,16.70
2018-05-16T08:08:02.667Z,16.80
2018-05-16T08:10:31.202Z,16.80
2018-05-16T08:12:59.517Z,16.90
2018-05-16T08:15:27.145Z,16.90
2018-05-16T08:17:55.413Z,17.20
2018-05-16T08:20:23.705Z,17.30
2018-05-16T08:22:51.201Z,17.30
2018-05-16T08:25:18.753Z,17.40
2018-05-16T08:27:46.265Z,17.60
2018-05-16T08:30:14.541Z,17.90
2018-05-16T08:32:42.830Z,18.00
2018-05-16T08:35:10.336Z,17.90
2018-05-16T08:37:37.855Z,18.00
2018-05-16T08:40:05.443Z,18.00
2018-05-16T08:42:33.327Z,18.00
2018-05-16T08:45:01.317Z,18.10
2018-05-16T08:47:29.610Z,18.20
2018-05-16T08:49:57.878Z,18.20
2018-05-16T08:52:30.309Z,18.10
2018-05-16T08:54:57.809Z,18.10
2018-05-16T08:57:25.353Z,18.10
2018-05-16T08:59:52.867Z,18.10
2018-05-16T09:02:20.755Z,18.00
2018-05-16T09:04:49.030Z,18.00
2018-05-16T09:07:16.586Z,18.20
2018-05-16T09:09:44.103Z,18.30
2018-05-16T09:12:11.666Z,18.30
2018-05-16T09:14:39.940Z,18.50
2018-05-16T09:17:13.078Z,18.60
2018-05-16T09:19:40.625Z,18.60
2018-05-16T09:22:08.853Z,18.60
2018-05-16T09:24:36.373Z,18.60
2018-05-16T09:27:04.033Z,18.40
2018-05-16T09:29:31.549Z,18.40
2018-05-16T09:31:59.889Z,18.30
2018-05-16T09:34:27.463Z,18.30
2018-05-16T09:36:55.008Z,18.30
2018-05-16T09:39:22.525Z,18.40
2018-05-16T09:41:50.045Z,18.40
2018-05-16T09:44:17.551Z,18.40
2018-05-16T09:46:45.061Z,18.30
2018-05-16T09:49:12.672Z,18.40
2018-05-16T09:51:40.866Z,18.30
2018-05-16T09:54:08.385Z,18.30
2018-05-16T09:56:36.670Z,18.40
2018-05-16T09:59:04.196Z,18.40
2018-05-16T10:01:31.715Z,18.50
2018-05-16T10:03:59.252Z,18.60
2018-05-16T10:06:27.699Z,18.60
2018-05-16T10:08:55.325Z,18.50
2018-05-16T10:11:22.929Z,18.50
2018-05-16T10:13:51.947Z,18.60
2018-05-16T10:16:19.466Z,18.50
2018-05-16T10:18:47.003Z,18.50
2018-05-16T10:21:14.505Z,18.50
2018-05-16T10:23:43.691Z,18.50
2018-05-16T10:26:12.505Z,18.40
2018-05-16T10:41:40.077Z,18.40
2018-05-16T10:44:07.698Z,17.20
2018-05-16T10:46:35.225Z,17.40
2018-05-16T10:49:03.613Z,17.70
2018-05-16T10:51:31.210Z,17.90
2018-05-16T10:53:59.504Z,18.50
2018-05-16T10:56:27.036Z,18.50
2018-05-16T10:58:55.398Z,18.60
2018-05-16T11:01:22.913Z,18.50
2018-05-16T11:03:51.402Z,18.60
2018-05-16T11:06:18.717Z,18.70
2018-05-16T11:08:51.019Z,19.10
2018-05-16T11:11:19.401Z,19.10
2018-05-16T11:13:47.678Z,19.20
2018-05-16T11:16:15.182Z,19.10
2018-05-16T11:18:42.708Z,19.20
2018-05-16T11:21:10.223Z,19.30
2018-05-16T11:23:42.386Z,19.40
2018-05-16T11:26:11.323Z,19.40
2018-05-16T11:28:38.857Z,19.30
2018-05-16T11:31:06.656Z,19.50
2018-05-16T11:33:34.870Z,19.60
2018-05-16T11:36:02.423Z,19.80
2018-05-16T11:38:29.931Z,19.80
2018-05-16T11:40:57.461Z,20.00
2018-05-16T11:43:25.737Z,20.40
2018-05-16T11:45:54.069Z,20.40
2018-05-16T11:48:25.299Z,20.40
2018-05-16T11:50:52.821Z,20.40
2018-05-16T11:53:21.150Z,20.40
2018-05-16T11:55:49.295Z,20.40
2018-05-16T11:58:16.803Z,20.30
2018-05-16T12:00:44.426Z,20.20
2018-05-16T12:03:12.007Z,20.10
2018-05-16T12:05:43.505Z,20.10
2018-05-16T12:08:11.814Z,20.00
2018-05-16T12:10:39.335Z,19.90
2018-05-16T12:13:07.634Z,19.70
2018-05-16T12:15:35.137Z,19.70
2018-05-16T12:18:02.656Z,19.80
2018-05-16T12:20:30.174Z,19.70
2018-05-16T12:22:57.670Z,19.50
2018-05-16T12:25:25.213Z,19.60
2018-05-16T12:27:53.481Z,19.60
2018-05-16T12:30:20.996Z,19.50
2018-05-16T12:32:48.529Z,19.60
2018-05-16T12:35:16.090Z,19.70
2018-05-16T12:37:44.214Z,19.60
2018-05-16T12:40:11.717Z,19.60
2018-05-16T12:42:51.241Z,19.50
2018-05-16T12:45:19.652Z,19.60
2018-05-16T12:47:47.156Z,19.50
2018-05-16T12:50:15.606Z,19.50
2018-05-16T12:52:43.269Z,19.70
2018-05-16T12:55:10.882Z,19.80
2018-05-16T12:57:39.161Z,19.80
2018-05-16T13:00:07.488Z,19.70
2018-05-16T13:02:35.007Z,19.60
2018-05-16T13:05:03.431Z,19.50
2018-05-16T13:07:30.937Z,19.50
2018-05-16T13:09:59.281Z,19.50
2018-05-16T13:12:26.836Z,19.50
2018-05-16T13:14:54.369Z,19.60
2018-05-16T13:17:22.078Z,19.70
2018-05-16T13:19:49.601Z,19.70
2018-05-16T13:22:17.906Z,19.80
2018-05-16T13:24:45.434Z,19.70
2018-05-16T13:27:12.969Z,19.80
2018-05-16T13:29:40.485Z,19.90
2018-05-16T13:32:08.962Z,19.60
2018-05-16T13:34:36.492Z,19.80
2018-05-16T13:37:03.996Z,19.90
2018-05-16T13:39:31.553Z,20.00
2018-05-16T13:41:59.937Z,19.90
2018-05-16T13:44:27.565Z,19.80
2018-05-16T13:46:55.112Z,19.70
2018-05-16T13:49:22.642Z,19.60
2018-05-16T13:51:50.938Z,19.60
2018-05-16T13:54:18.481Z,19.50
2018-05-16T13:56:47.093Z,19.90
2018-05-16T13:59:14.606Z,19.80
2018-05-16T14:01:47.217Z,19.80
2018-05-16T14:04:19.161Z,19.90
2018-05-16T14:06:47.438Z,19.80
2018-05-16T14:09:15.790Z,19.80
2018-05-16T14:11:43.902Z,19.80
2018-05-16T14:14:11.401Z,19.80
2018-05-16T14:16:38.960Z,19.60
2018-05-16T14:19:06.540Z,19.70
2018-05-16T14:21:34.682Z,19.70
2018-05-16T14:24:02.213Z,19.80
2018-05-16T14:26:30.314Z,19.70
2018-05-16T14:28:58.326Z,19.70
2018-05-16T14:31:25.842Z,19.60
2018-05-16T14:33:54.830Z,19.50
2018-05-16T14:36:22.330Z,19.30
2018-05-16T14:38:49.857Z,19.20
2018-05-16T14:41:18.053Z,19.20
2018-05-16T14:43:45.573Z,19.30
2018-05-16T14:46:13.090Z,19.30
2018-05-16T14:48:40.621Z,19.20
2018-05-16T14:51:08.142Z,19.20
2018-05-16T14:53:35.662Z,19.20
2018-05-16T15:09:03.234Z,19.20
2018-05-16T15:11:31.521Z,19.10
2018-05-16T15:13:59.961Z,19.10
2018-05-16T15:16:27.491Z,19.40
2018-05-16T15:18:54.998Z,19.80
2018-05-16T15:21:24.173Z,20.60
2018-05-16T15:23:51.668Z,20.60
2018-05-16T15:26:19.954Z,20.90
2018-05-16T15:28:48.253Z,20.70
2018-05-16T15:31:15.762Z,20.80
2018-05-16T15:33:44.868Z,21.00
2018-05-16T15:36:13.250Z,20.90
2018-05-16T15:38:41.539Z,20.70
2018-05-16T15:41:10.786Z,20.70
2018-05-16T15:43:39.129Z,20.60
2018-05-16T15:46:06.650Z,20.60
2018-05-16T15:48:34.251Z,20.60
2018-05-16T15:51:01.786Z,20.50
2018-05-16T15:53:32.485Z,20.60
2018-05-16T15:56:00.732Z,20.60
2018-05-16T15:58:28.509Z,20.60
2018-05-16T16:01:00.729Z,20.70
2018-05-16T16:03:29.013Z,20.80
2018-05-16T16:05:57.434Z,21.00
2018-05-16T16:08:25.268Z,20.90
2018-05-16T16:10:53.596Z,21.00
2018-05-16T16:13:21.496Z,21.00
2018-05-16T16:15:50.437Z,21.30
2018-05-16T16:18:17.967Z,21.30
2018-05-16T16:20:46.181Z,21.30
2018-05-16T16:23:13.702Z,21.20
2018-05-16T16:25:41.680Z,21.20
2018-05-16T16:28:09.250Z,21.40
2018-05-16T16:41:48.142Z,21.70
2018-05-16T16:44:15.664Z,21.60
2018-05-16T16:46:43.268Z,21.50
2018-05-16T16:49:11.181Z,21.40
2018-05-16T16:51:38.706Z,21.30
2018-05-16T16:54:06.237Z,21.20
2018-05-16T16:56:34.532Z,21.00
2018-05-16T16:59:02.090Z,21.00
2018-05-16T17:01:29.596Z,21.00
2018-05-16T17:03:57.109Z,21.00
2018-05-16T17:06:24.617Z,20.90
2018-05-16T17:08:52.141Z,20.90
2018-05-16T17:11:19.664Z,20.90
2018-05-16T17:13:47.957Z,20.90
2018-05-16T17:16:15.581Z,20.90
2018-05-16T17:18:43.774Z,20.90
2018-05-16T17:21:12.187Z,20.80
2018-05-16T17:23:39.742Z,20.80
2018-05-16T17:26:07.432Z,20.80
2018-05-16T17:28:35.010Z,20.80
2018-05-16T17:31:02.574Z,20.70
2018-05-16T17:33:30.154Z,20.70
2018-05-16T17:35:58.437Z,20.60
2018-05-16T17:38:26.743Z,20.50
2018-05-16T17:40:54.270Z,20.50
2018-05-16T17:43:22.654Z,20.30
2018-05-16T17:45:50.113Z,20.30
2018-05-16T17:48:18.527Z,20.20
2018-05-16T17:50:47.139Z,20.20
2018-05-16T17:53:14.693Z,20.10
2018-05-16T17:55:42.199Z,20.10
2018-05-16T17:58:10.491Z,20.10
2018-05-16T18:00:38.101Z,20.10
2018-05-16T18:03:05.606Z,20.10
2018-05-16T18:05:33.137Z,20.20
2018-05-16T18:08:00.655Z,20.10
2018-05-16T18:10:29.140Z,20.10
2018-05-16T18:13:18.422Z,20.10
2018-05-16T18:15:57.735Z,20.20
2018-05-16T18:18:25.272Z,19.90
2018-05-16T18:20:52.813Z,19.90
2018-05-16T18:23:21.102Z,19.70
2018-05-16T18:25:48.668Z,19.70
2018-05-16T18:28:16.249Z,19.60
2018-05-16T18:30:43.868Z,19.60
2018-05-16T18:33:12.154Z,19.60
2018-05-16T18:35:41.900Z,19.60
2018-05-16T18:38:09.404Z,19.60
2018-05-16T18:40:36.917Z,19.60
2018-05-16T18:43:04.430Z,19.50
2018-05-16T18:45:32.701Z,19.50
2018-05-16T18:48:00.241Z,19.50
2018-05-16T18:50:27.816Z,19.40
2018-05-16T18:52:55.339Z,19.40
2018-05-16T19:08:22.914Z,19.20
2018-05-16T19:10:50.455Z,18.30
2018-05-16T19:13:18.024Z,18.40
2018-05-16T19:15:45.530Z,18.60
2018-05-16T19:18:13.821Z,18.70
2018-05-16T19:20:41.369Z,18.60
2018-05-16T19:23:09.678Z,18.70
2018-05-16T19:25:37.199Z,18.70
2018-05-16T19:28:05.477Z,18.60
2018-05-16T19:30:33.770Z,18.50
2018-05-16T19:33:01.308Z,18.50
2018-05-16T19:35:29.595Z,18.50
2018-05-16T19:37:57.867Z,18.50
2018-05-16T19:40:26.163Z,18.60
2018-05-16T19:42:53.710Z,18.50
2018-05-16T19:45:22.046Z,18.50
2018-05-16T19:47:49.604Z,18.50
2018-05-16T19:50:17.742Z,18.40
2018-05-16T19:52:45.289Z,18.40
2018-05-16T19:55:12.810Z,18.30
2018-05-16T19:57:40.377Z,18.20
2018-05-16T20:00:07.898Z,18.20
2018-05-16T20:02:35.422Z,18.10
2018-05-16T20:05:02.949Z,18.10
2018-05-16T20:07:30.527Z,18.00
2018-05-16T20:09:59.056Z,17.90
2018-05-16T20:12:26.591Z,17.90
2018-05-16T20:14:54.165Z,17.90
2018-05-16T20:17:22.443Z,17.70
2018-05-16T20:19:49.950Z,17.70
2018-05-16T20:22:17.474Z,17.60
2018-05-16T20:24:45.040Z,17.60
2018-05-16T20:27:12.597Z,17.50
2018-05-16T20:29:40.133Z,17.40
2018-05-16T20:32:07.657Z,17.40
2018-05-16T20:34:39.131Z,17.30
2018-05-16T20:37:06.674Z,17.30
2018-05-16T20:39:34.997Z,17.20
2018-05-16T20:42:03.427Z,17.20
2018-05-16T20:44:31.728Z,17.20
2018-05-16T20:46:59.234Z,17.20
2018-05-16T20:49:26.761Z,17.20
2018-05-16T20:51:54.269Z,17.00
2018-05-16T21:07:27.598Z,16.10
2018-05-16T21:09:55.120Z,16.10
2018-05-16T21:12:24.079Z,16.20
2018-05-16T21:14:52.244Z,16.20
2018-05-16T21:17:19.840Z,16.30
2018-05-16T21:19:47.401Z,16.30
2018-05-16T21:22:14.938Z,16.30
2018-05-16T21:24:42.439Z,16.30
2018-05-16T21:27:10.730Z,16.20
2018-05-16T21:29:38.568Z,16.20
2018-05-16T21:32:06.106Z,16.10
2018-05-16T21:34:33.622Z,16.00
2018-05-16T21:37:01.138Z,16.00
2018-05-16T21:39:28.655Z,16.00
2018-05-16T21:41:56.182Z,15.90
2018-05-16T21:44:24.467Z,15.80
2018-05-16T21:46:52.747Z,15.80
2018-05-16T21:49:21.648Z,15.70
2018-05-16T21:51:53.190Z,15.70
2018-05-16T21:54:21.301Z,15.70
2018-05-16T21:56:48.913Z,15.60
2018-05-16T21:59:16.469Z,15.50
2018-05-16T22:01:44.749Z,15.50
2018-05-16T22:04:13.025Z,15.50
2018-05-16T22:06:41.306Z,15.50
2018-05-16T22:09:09.586Z,15.50
2018-05-16T22:11:41.009Z,15.50
2018-05-16T22:14:08.531Z,15.50
2018-05-16T22:16:36.064Z,15.40
2018-05-16T22:19:03.554Z,15.20
2018-05-16T22:21:31.078Z,15.30
2018-05-16T22:23:59.356Z,15.30
2018-05-16T22:26:26.909Z,15.30
2018-05-16T22:28:55.194Z,15.10
2018-05-16T22:31:28.499Z,15.10
2018-05-16T22:34:01.658Z,15.10
2018-05-16T22:36:34.874Z,15.00
2018-05-16T22:39:08.142Z,15.00
2018-05-16T22:41:41.415Z,14.90
2018-05-16T22:44:14.638Z,14.80
2018-05-16T22:46:42.918Z,14.70
2018-05-16T22:49:11.180Z,14.70
2018-05-16T22:51:39.377Z,14.60
2018-05-16T22:54:07.661Z,14.70
2018-05-16T22:56:35.440Z,14.70
2018-05-16T22:59:03.312Z,14.80
2018-05-16T23:01:30.822Z,14.80
2018-05-16T23:03:59.219Z,14.70
2018-05-16T23:06:31.198Z,14.60
2018-05-16T23:08:59.254Z,14.60
2018-05-16T23:11:27.609Z,14.40
2018-05-16T23:13:55.118Z,14.40
2018-05-16T23:16:22.645Z,14.50
2018-05-16T23:18:50.938Z,14.50
2018-05-16T23:21:19.241Z,14.60
2018-05-16T23:23:46.780Z,14.50
2018-05-16T23:26:14.304Z,14.60
2018-05-16T23:28:41.857Z,14.60
2018-05-16T23:31:09.379Z,14.50
2018-05-16T23:33:36.898Z,14.60
2018-05-16T23:36:05.935Z,14.40
2018-05-16T23:38:33.428Z,14.40
2018-05-16T23:41:00.936Z,14.40
2018-05-16T23:43:29.389Z,14.40
2018-05-16T23:45:57.694Z,14.40
2018-05-16T23:48:25.963Z,14.40
2018-05-16T23:50:53.504Z,14.40
2018-05-16T23:53:21.761Z,14.40
2018-05-16T23:55:49.301Z,14.30
2018-05-16T23:58:16.890Z,14.30
